createdAt,value
2023-04-01T00:01:51.897Z,100.00
2023-04-01T00:04:22.389Z,100.00
2023-04-01T00:06:53.060Z,100.00
2023-04-01T00:09:26.199Z,100.00
2023-04-01T00:12:00.831Z,100.00
2023-04-01T00:14:31.662Z,100.00
2023-04-01T00:17:02.260Z,100.00
2023-04-01T00:19:33.653Z,100.00
2023-04-01T00:22:04.168Z,100.00
2023-04-01T00:24:37.298Z,100.00
2023-04-01T00:27:09.249Z,100.00
2023-04-01T00:29:39.715Z,100.00
2023-04-01T00:32:10.616Z,100.00
2023-04-01T00:34:41.335Z,100.00
2023-04-01T00:37:12.608Z,100.00
2023-04-01T00:39:45.660Z,100.00
2023-04-01T00:42:16.501Z,100.00
2023-04-01T00:44:48.938Z,100.00
2023-04-01T00:47:19.341Z,100.00
2023-04-01T00:49:53.622Z,100.00
2023-04-01T00:52:29.487Z,100.00
2023-04-01T00:55:05.551Z,100.00
2023-04-01T00:57:41.026Z,100.00
2023-04-01T01:00:16.654Z,100.00
2023-04-01T01:02:49.529Z,100.00
2023-04-01T01:05:22.261Z,100.00
2023-04-01T01:08:05.670Z,100.00
2023-04-01T01:10:43.140Z,100.00
2023-04-01T01:13:21.231Z,100.00
2023-04-01T01:15:58.265Z,100.00
2023-04-01T01:18:39.068Z,100.00
2023-04-01T01:21:49.773Z,100.00
2023-04-01T01:24:55.721Z,100.00
2023-04-01T01:27:28.773Z,100.00
2023-04-01T01:30:30.598Z,100.00
2023-04-01T01:33:29.091Z,100.00
2023-04-01T01:36:06.531Z,100.00
2023-04-01T01:38:39.486Z,100.00
2023-04-01T01:41:12.263Z,100.00
2023-04-01T01:43:47.247Z,100.00
2023-04-01T01:46:23.472Z,100.00
2023-04-01T01:48:55.874Z,100.00
2023-04-01T01:51:31.374Z,100.00
2023-04-01T01:54:02.144Z,100.00
2023-04-01T01:56:35.353Z,100.00
2023-04-01T01:59:12.270Z,100.00
2023-04-01T02:01:47.324Z,100.00
2023-04-01T02:04:20.485Z,100.00
2023-04-01T02:06:59.925Z,100.00
2023-04-01T02:09:31.662Z,100.00
2023-04-01T02:12:06.741Z,100.00
2023-04-01T02:14:48.729Z,100.00
2023-04-01T02:17:22.697Z,100.00
2023-04-01T02:20:01.211Z,100.00
2023-04-01T02:22:38.852Z,100.00
2023-04-01T02:25:13.930Z,100.00
2023-04-01T02:27:47.352Z,100.00
2023-04-01T02:30:20.161Z,100.00
2023-04-01T02:32:52.531Z,100.00
2023-04-01T02:35:23.456Z,100.00
2023-04-01T02:37:58.300Z,100.00
2023-04-01T02:40:28.789Z,99.65
2023-04-01T02:42:59.342Z,99.13
2023-04-01T02:45:29.787Z,98.70
2023-04-01T02:48:01.106Z,98.31
2023-04-01T02:50:31.611Z,97.73
2023-04-01T02:53:07.375Z,96.97
2023-04-01T02:55:38.594Z,97.11
2023-04-01T02:58:09.063Z,96.17
2023-04-01T03:00:39.569Z,97.26
2023-04-01T03:03:10.059Z,96.27
2023-04-01T03:05:40.863Z,96.59
2023-04-01T03:08:14.252Z,95.80
2023-04-01T03:10:45.186Z,95.85
2023-04-01T03:13:15.778Z,95.96
2023-04-01T03:15:47.156Z,95.61
2023-04-01T03:18:18.484Z,95.24
2023-04-01T03:20:49.455Z,94.48
2023-04-01T03:23:25.365Z,95.48
2023-04-01T03:25:55.822Z,95.38
2023-04-01T03:28:26.286Z,94.89
2023-04-01T03:30:57.032Z,94.56
2023-04-01T03:33:27.734Z,94.70
2023-04-01T03:35:58.372Z,95.18
2023-04-01T03:38:31.745Z,95.87
2023-04-01T03:41:02.123Z,96.04
2023-04-01T03:43:33.221Z,96.84
2023-04-01T03:46:03.880Z,97.43
2023-04-01T03:48:34.483Z,96.56
2023-04-01T03:51:04.980Z,97.40
2023-04-01T03:53:38.781Z,98.00
2023-04-01T03:56:12.595Z,98.19
2023-04-01T03:58:43.261Z,97.36
2023-04-01T04:01:22.128Z,98.22
2023-04-01T04:03:56.687Z,98.90
2023-04-01T04:06:28.376Z,98.93
2023-04-01T04:09:01.583Z,99.36
2023-04-01T04:11:35.954Z,99.42
2023-04-01T04:14:06.971Z,99.99
2023-04-01T04:16:40.524Z,99.73
2023-04-01T04:19:13.978Z,100.00
2023-04-01T04:21:45.388Z,100.00
2023-04-01T04:24:19.013Z,100.00
2023-04-01T04:27:03.474Z,100.00
2023-04-01T04:29:34.259Z,100.00
2023-04-01T04:32:04.904Z,100.00
2023-04-01T04:34:36.262Z,100.00
2023-04-01T04:37:07.144Z,100.00
2023-04-01T04:39:42.809Z,100.00
2023-04-01T04:42:13.341Z,100.00
2023-04-01T04:44:43.962Z,100.00
2023-04-01T04:47:14.803Z,100.00
2023-04-01T04:49:45.654Z,100.00
2023-04-01T04:52:16.404Z,100.00
2023-04-01T04:54:49.639Z,100.00
2023-04-01T04:57:20.168Z,100.00
2023-04-01T04:59:57.638Z,100.00
2023-04-01T05:02:44.724Z,99.31
2023-04-01T05:05:15.358Z,99.66
2023-04-01T05:07:46.057Z,98.36
2023-04-01T05:10:19.429Z,96.61
2023-04-01T05:12:49.851Z,96.48
2023-04-01T05:15:24.730Z,96.52
2023-04-01T05:17:55.366Z,96.24
2023-04-01T05:20:25.995Z,96.21
2023-04-01T05:23:00.279Z,95.02
2023-04-01T05:25:33.483Z,95.65
2023-04-01T05:28:04.567Z,95.54
2023-04-01T05:30:35.271Z,95.94
2023-04-01T05:33:21.527Z,95.77
2023-04-01T05:35:52.530Z,95.72
2023-04-01T05:38:23.134Z,95.37
2023-04-01T05:41:04.735Z,94.59
2023-04-01T05:43:40.999Z,95.33
2023-04-01T05:46:30.366Z,92.43
2023-04-01T05:49:08.131Z,92.87
2023-04-01T05:51:38.898Z,92.51
2023-04-01T05:54:12.425Z,92.58
2023-04-01T05:56:47.633Z,92.54
2023-04-01T05:59:19.832Z,91.63
2023-04-01T06:01:50.042Z,90.46
2023-04-01T06:04:22.205Z,90.40
2023-04-01T06:06:53.009Z,90.01
2023-04-01T06:09:31.283Z,89.57
2023-04-01T06:12:40.254Z,88.82
2023-04-01T06:15:27.414Z,88.00
2023-04-01T06:18:42.291Z,87.68
2023-04-01T06:21:39.088Z,87.00
2023-04-01T06:24:35.650Z,87.05
2023-04-01T06:27:14.278Z,86.80
2023-04-01T06:30:11.264Z,85.50
2023-04-01T06:33:12.880Z,85.24
2023-04-01T06:36:04.369Z,85.80
2023-04-01T06:39:12.556Z,85.18
2023-04-01T06:42:33.850Z,84.98
2023-04-01T06:45:34.114Z,82.76
2023-04-01T06:48:43.255Z,82.70
2023-04-01T06:51:46.424Z,83.61
2023-04-01T06:54:48.469Z,85.02
2023-04-01T06:57:48.840Z,86.57
2023-04-01T07:00:31.951Z,84.87
2023-04-01T07:03:17.184Z,85.34
2023-04-01T07:05:48.476Z,83.33
2023-04-01T07:08:25.160Z,83.25
2023-04-01T07:11:05.953Z,83.30
2023-04-01T07:13:59.519Z,81.98
2023-04-01T07:16:38.256Z,81.16
2023-04-01T07:19:16.983Z,78.50
2023-04-01T07:22:05.754Z,79.25
2023-04-01T07:24:59.233Z,78.74
2023-04-01T07:27:30.001Z,78.01
2023-04-01T07:30:01.524Z,78.55
2023-04-01T07:32:47.500Z,78.76
2023-04-01T07:35:28.147Z,79.33
2023-04-01T07:38:17.128Z,78.90
2023-04-01T07:41:00.075Z,78.34
2023-04-01T07:43:49.135Z,77.31
2023-04-01T07:46:57.731Z,76.65
2023-04-01T07:49:40.810Z,77.49
2023-04-01T07:52:18.113Z,77.78
2023-04-01T07:54:58.002Z,76.94
2023-04-01T07:57:40.020Z,75.70
2023-04-01T08:00:21.123Z,75.17
2023-04-01T08:03:23.124Z,76.83
2023-04-01T08:06:01.678Z,76.56
2023-04-01T08:08:48.534Z,76.20
2023-04-01T08:11:43.991Z,75.92
2023-04-01T08:14:44.842Z,76.39
2023-04-01T08:17:46.091Z,76.86
2023-04-01T08:20:30.307Z,76.32
2023-04-01T08:23:12.463Z,76.72
2023-04-01T08:25:52.999Z,75.88
2023-04-01T08:28:33.505Z,76.00
2023-04-01T08:31:10.517Z,74.30
2023-04-01T08:33:43.410Z,74.50
2023-04-01T08:36:20.576Z,73.38
2023-04-01T08:39:08.120Z,73.26
2023-04-01T08:42:10.917Z,74.16
2023-04-01T08:45:22.925Z,75.50
2023-04-01T08:48:47.526Z,76.07
2023-04-01T08:52:06.260Z,76.91
2023-04-01T08:55:17.715Z,77.13
2023-04-01T08:58:50.702Z,74.54
2023-04-01T09:01:58.579Z,72.78
2023-04-01T09:05:45.009Z,71.42
2023-04-01T09:08:36.764Z,71.95
2023-04-01T09:11:18.328Z,71.21
2023-04-01T09:14:24.134Z,71.46
2023-04-01T09:17:44.929Z,69.70
2023-04-01T09:21:02.282Z,70.05
2023-04-01T09:23:57.081Z,69.55
2023-04-01T09:26:54.226Z,69.89
2023-04-01T09:29:52.869Z,68.46
2023-04-01T09:33:00.535Z,67.52
2023-04-01T09:35:47.871Z,68.53
2023-04-01T09:38:33.679Z,67.99
2023-04-01T09:41:17.400Z,67.85
2023-04-01T09:44:19.850Z,67.06
2023-04-01T09:47:41.513Z,66.95
2023-04-01T09:50:32.913Z,65.61
2023-04-01T09:53:11.736Z,66.18
2023-04-01T09:56:39.191Z,66.35
2023-04-01T10:00:06.164Z,66.00
2023-04-01T10:03:41.677Z,66.38
2023-04-01T10:06:56.082Z,65.49
2023-04-01T10:10:17.960Z,65.42
2023-04-01T10:13:22.097Z,66.51
2023-04-01T10:16:34.518Z,66.46
2023-04-01T10:19:50.223Z,64.28
2023-04-01T10:23:06.521Z,65.01
2023-04-01T10:26:41.417Z,64.37
2023-04-01T10:30:09.485Z,64.50
2023-04-01T10:33:40.515Z,63.21
2023-04-01T10:36:52.482Z,64.12
2023-04-01T10:40:10.819Z,64.12
2023-04-01T10:44:06.574Z,64.36
2023-04-01T10:47:21.181Z,64.04
2023-04-01T10:50:27.339Z,63.09
2023-04-01T10:53:46.774Z,63.46
2023-04-01T11:00:45.484Z,63.74
2023-04-01T11:04:08.313Z,65.05
2023-04-01T11:07:28.817Z,64.58
2023-04-01T11:11:03.297Z,64.42
2023-04-01T11:14:27.061Z,64.38
2023-04-01T11:17:37.352Z,63.10
2023-04-01T11:20:38.334Z,62.04
2023-04-01T11:23:33.852Z,61.80
2023-04-01T11:26:13.875Z,61.85
2023-04-01T11:30:00.627Z,61.95
2023-04-01T11:32:58.309Z,62.29
2023-04-01T11:35:56.827Z,62.58
2023-04-01T11:39:04.395Z,63.88
2023-04-01T11:42:03.482Z,62.59
2023-04-01T11:45:05.642Z,63.60
2023-04-01T11:48:07.139Z,63.48
2023-04-01T11:51:10.165Z,64.68
2023-04-01T11:53:57.594Z,65.12
2023-04-01T11:56:54.003Z,65.19
2023-04-01T12:00:00.628Z,65.95
2023-04-01T12:02:43.687Z,67.16
2023-04-01T12:05:41.840Z,67.52
2023-04-01T12:08:28.018Z,67.95
2023-04-01T12:11:10.680Z,69.12
2023-04-01T12:13:52.331Z,69.53
2023-04-01T12:16:48.025Z,72.19
2023-04-01T12:19:29.398Z,72.71
2023-04-01T12:22:21.254Z,72.41
2023-04-01T12:24:53.895Z,71.26
2023-04-01T12:27:46.257Z,71.75
2023-04-01T12:30:39.272Z,74.16
2023-04-01T12:33:37.277Z,76.42
2023-04-01T12:36:26.207Z,75.51
2023-04-01T12:39:24.201Z,77.43
2023-04-01T12:42:05.360Z,77.62
2023-04-01T12:44:56.556Z,78.64
2023-04-01T12:47:42.918Z,80.33
2023-04-01T12:50:53.168Z,78.77
2023-04-01T12:53:45.820Z,80.23
2023-04-01T12:56:23.555Z,79.99
2023-04-01T12:59:18.900Z,80.08
2023-04-01T13:02:06.633Z,80.08
2023-04-01T13:05:25.258Z,79.82
2023-04-01T13:08:11.460Z,81.04
2023-04-01T13:11:07.224Z,82.79
2023-04-01T13:14:31.308Z,82.59
2023-04-01T13:17:16.318Z,80.00
2023-04-01T13:20:04.756Z,79.52
2023-04-01T13:22:59.366Z,79.08
2023-04-01T13:25:41.002Z,77.77
2023-04-01T13:28:20.503Z,73.98
2023-04-01T13:31:01.562Z,67.55
2023-04-01T13:33:43.899Z,60.41
2023-04-01T13:36:27.070Z,59.68
2023-04-01T13:39:16.072Z,63.31
2023-04-01T13:42:21.388Z,63.60
2023-04-01T13:44:57.661Z,66.20
2023-04-01T13:48:14.680Z,70.09
2023-04-01T13:51:34.368Z,71.71
2023-04-01T13:55:00.828Z,68.81
2023-04-01T13:58:11.994Z,67.39
2023-04-01T14:00:59.168Z,68.02
2023-04-01T14:03:38.322Z,65.46
2023-04-01T14:06:27.823Z,67.85
2023-04-01T14:09:45.236Z,68.21
2023-04-01T14:12:31.035Z,69.81
2023-04-01T14:15:46.712Z,70.41
2023-04-01T14:18:55.298Z,72.57
2023-04-01T14:21:38.524Z,75.67
2023-04-01T14:24:47.269Z,78.97
2023-04-01T14:27:48.538Z,81.12
2023-04-01T14:30:33.691Z,82.83
2023-04-01T14:33:23.673Z,81.90
2023-04-01T14:36:15.776Z,81.78
2023-04-01T14:39:08.464Z,83.31
2023-04-01T14:41:53.141Z,81.27
2023-04-01T14:44:42.713Z,78.80
2023-04-01T14:47:48.548Z,80.34
2023-04-01T14:50:22.621Z,80.14
2023-04-01T14:53:03.303Z,77.81
2023-04-01T14:55:54.991Z,78.74
2023-04-01T14:58:29.156Z,78.97
2023-04-01T15:01:15.949Z,78.11
2023-04-01T15:04:00.149Z,77.15
2023-04-01T15:07:00.544Z,74.95
2023-04-01T15:09:40.863Z,75.99
2023-04-01T15:12:28.640Z,76.82
2023-04-01T15:15:24.835Z,74.76
2023-04-01T15:18:11.474Z,75.28
2023-04-01T15:21:19.739Z,77.30
2023-04-01T15:24:01.484Z,78.27
2023-04-01T15:27:16.376Z,75.71
2023-04-01T15:30:20.986Z,75.49
2023-04-01T15:33:08.212Z,75.92
2023-04-01T15:35:49.730Z,77.92
2023-04-01T15:38:33.646Z,78.28
2023-04-01T15:41:18.625Z,75.80
2023-04-01T15:43:53.695Z,72.83
2023-04-01T15:46:51.342Z,71.42
2023-04-01T15:49:40.756Z,69.75
2023-04-01T15:52:19.223Z,70.48
2023-04-01T15:55:22.582Z,71.63
2023-04-01T15:58:19.216Z,71.44
2023-04-01T16:00:58.994Z,70.73
2023-04-01T16:03:43.073Z,70.02
2023-04-01T16:06:41.320Z,69.76
2023-04-01T16:09:38.378Z,69.54
2023-04-01T16:12:20.197Z,70.47
2023-04-01T16:15:12.575Z,71.18
2023-04-01T16:18:35.087Z,71.23
2023-04-01T16:21:13.175Z,72.25
2023-04-01T16:23:51.861Z,72.49
2023-04-01T16:26:30.798Z,73.12
2023-04-01T16:29:14.880Z,74.21
2023-04-01T16:31:53.292Z,73.93
2023-04-01T16:34:36.361Z,73.89
2023-04-01T16:37:15.062Z,73.95
2023-04-01T16:39:54.603Z,73.78
2023-04-01T16:42:39.202Z,74.30
2023-04-01T16:45:29.276Z,74.53
2023-04-01T16:48:04.437Z,75.14
2023-04-01T16:50:53.970Z,74.70
2023-04-01T16:53:40.644Z,74.41
2023-04-01T16:56:18.510Z,74.68
2023-04-01T16:59:05.774Z,74.52
2023-04-01T17:01:47.686Z,75.24
2023-04-01T17:04:31.387Z,75.57
2023-04-01T17:07:19.198Z,76.28
2023-04-01T17:10:33.336Z,76.47
2023-04-01T17:13:38.689Z,77.02
2023-04-01T17:16:27.474Z,76.62
2023-04-01T17:19:09.673Z,77.08
2023-04-01T17:22:02.707Z,77.97
2023-04-01T17:24:52.906Z,78.17
2023-04-01T17:27:40.695Z,79.42
2023-04-01T17:30:25.541Z,79.12
2023-04-01T17:33:24.234Z,79.58
2023-04-01T17:36:03.295Z,79.46
2023-04-01T17:39:01.122Z,79.74
2023-04-01T17:41:47.958Z,79.39
2023-04-01T17:44:33.832Z,79.79
2023-04-01T17:47:35.873Z,80.30
2023-04-01T17:50:22.610Z,79.86
2023-04-01T17:53:11.173Z,79.89
2023-04-01T17:56:16.294Z,79.58
2023-04-01T17:59:04.361Z,79.92
2023-04-01T18:01:47.647Z,80.41
2023-04-01T18:04:53.203Z,80.33
2023-04-01T18:07:52.947Z,80.46
2023-04-01T18:10:33.328Z,81.05
2023-04-01T18:13:37.415Z,81.29
2023-04-01T18:16:32.658Z,80.99
2023-04-01T18:19:13.786Z,81.09
2023-04-01T18:21:50.018Z,80.98
2023-04-01T18:24:29.055Z,81.63
2023-04-01T18:27:08.236Z,82.59
2023-04-01T18:29:50.692Z,82.89
2023-04-01T18:32:42.037Z,83.68
2023-04-01T18:35:29.157Z,84.48
2023-04-01T18:38:08.363Z,84.23
2023-04-01T18:40:44.815Z,84.13
2023-04-01T18:43:26.900Z,84.44
2023-04-01T18:46:03.392Z,83.77
2023-04-01T18:48:55.807Z,84.08
2023-04-01T18:51:37.218Z,83.54
2023-04-01T18:54:16.004Z,83.53
2023-04-01T18:56:48.700Z,83.60
2023-04-01T18:59:28.640Z,84.45
2023-04-01T19:02:08.870Z,84.84
2023-04-01T19:04:50.244Z,85.84
2023-04-01T19:07:50.814Z,87.32
2023-04-01T19:10:31.058Z,87.26
2023-04-01T19:13:24.021Z,87.73
2023-04-01T19:16:03.759Z,88.68
2023-04-01T19:19:12.401Z,89.13
2023-04-01T19:21:52.196Z,89.67
2023-04-01T19:25:13.689Z,90.20
2023-04-01T19:27:47.152Z,89.74
2023-04-01T19:30:46.555Z,89.34
2023-04-01T19:33:39.640Z,89.70
2023-04-01T19:36:23.402Z,89.92
2023-04-01T19:39:27.840Z,90.34
2023-04-01T19:42:06.965Z,89.70
2023-04-01T19:44:55.379Z,90.01
2023-04-01T19:47:44.025Z,90.19
2023-04-01T19:50:36.768Z,90.25
2023-04-01T19:53:24.335Z,90.58
2023-04-01T19:56:06.414Z,90.46
2023-04-01T19:58:43.965Z,90.58
2023-04-01T20:01:41.675Z,90.56
2023-04-01T20:04:22.520Z,90.97
2023-04-01T20:07:01.448Z,90.87
2023-04-01T20:09:55.585Z,91.12
2023-04-01T20:12:47.500Z,91.97
2023-04-01T20:15:34.820Z,90.95
2023-04-01T20:18:13.320Z,91.07
2023-04-01T20:20:58.426Z,91.96
2023-04-01T20:23:43.050Z,91.96
2023-04-01T20:26:36.840Z,91.94
2023-04-01T20:29:58.725Z,92.78
2023-04-01T20:33:03.013Z,94.08
2023-04-01T20:36:07.595Z,94.40
2023-04-01T20:39:38.036Z,94.21
2023-04-01T20:42:35.708Z,94.01
2023-04-01T20:45:36.968Z,95.31
2023-04-01T20:49:27.917Z,95.21
2023-04-01T20:52:25.260Z,96.48
2023-04-01T20:55:28.348Z,95.62
2023-04-01T20:58:24.985Z,95.30
2023-04-01T21:01:46.988Z,95.33
2023-04-01T21:08:59.488Z,94.87
2023-04-01T21:11:39.858Z,94.57
2023-04-01T21:14:47.919Z,94.69
2023-04-01T21:17:36.406Z,94.60
2023-04-01T21:20:58.192Z,94.55
2023-04-01T21:23:49.700Z,94.73
2023-04-01T21:26:46.438Z,94.28
2023-04-01T21:29:38.072Z,94.17
2023-04-01T21:32:35.486Z,94.42
2023-04-01T21:35:23.831Z,94.15
2023-04-01T21:38:35.199Z,93.38
2023-04-01T21:41:29.451Z,93.07
2023-04-01T21:44:47.525Z,93.09
2023-04-01T21:48:10.717Z,93.47
2023-04-01T21:51:05.671Z,92.79
2023-04-01T21:54:12.873Z,93.18
2023-04-01T21:57:18.838Z,93.53
2023-04-01T22:00:18.438Z,94.41
2023-04-01T22:03:41.570Z,94.79
2023-04-01T22:06:31.025Z,95.53
2023-04-01T22:09:15.480Z,96.32
2023-04-01T22:11:57.485Z,97.36
2023-04-01T22:14:36.544Z,97.71
2023-04-01T22:17:18.141Z,98.51
2023-04-01T22:20:04.793Z,98.71
2023-04-01T22:22:54.673Z,98.80
2023-04-01T22:25:32.347Z,99.31
2023-04-01T22:28:08.284Z,99.71
2023-04-01T22:30:46.098Z,98.83
2023-04-01T22:33:27.427Z,98.17
2023-04-01T22:36:11.330Z,98.16
2023-04-01T22:39:11.280Z,98.31
2023-04-01T22:42:04.556Z,97.90
2023-04-01T22:44:54.859Z,98.10
2023-04-01T22:47:38.032Z,98.09
2023-04-01T22:50:18.272Z,97.46
2023-04-01T22:52:54.520Z,98.07
2023-04-01T22:55:30.243Z,98.52
2023-04-01T22:58:07.543Z,98.10
2023-04-01T23:00:44.736Z,98.66
2023-04-01T23:03:22.845Z,98.78
2023-04-01T23:05:56.867Z,99.72
2023-04-01T23:09:19.967Z,100.00
2023-04-01T23:11:55.684Z,99.73
2023-04-01T23:14:50.630Z,100.00
2023-04-01T23:17:41.692Z,100.00
2023-04-01T23:20:28.631Z,100.00
2023-04-01T23:23:19.590Z,100.00
2023-04-01T23:26:01.151Z,99.89
2023-04-01T23:29:00.663Z,100.00
2023-04-01T23:31:50.138Z,100.00
2023-04-01T23:34:33.709Z,100.00
2023-04-01T23:37:09.260Z,100.00
2023-04-01T23:39:45.020Z,100.00
2023-04-01T23:42:24.176Z,100.00
2023-04-01T23:44:58.758Z,99.52
2023-04-01T23:47:35.041Z,100.00
2023-04-01T23:50:12.012Z,99.63
2023-04-01T23:52:47.757Z,98.69
2023-04-01T23:55:26.376Z,99.17
2023-04-01T23:58:19.169Z,99.41
